KTHM Airport (Thompson Falls) Information

FAA: THM - ICAO: KTHM

KTHM Airport Location

State Montana
County Sanders
City Thompson Falls
KTHM Airport is 3 miles southeast of Thompson Falls, MT.
Latitude 47-34-24.5900N
Longitude 115-16-50.3600W
Elevation 2,466ft

KTHM Airport METARs

METAR KTHM 251555Z AUTO 00000KT 10SM 06/05 A2964 RMK Thompson Falls
Altimeter 29.64"
Temperature 6.0°C (42.8°F)
Wind 0° at 0KT
Clouds at 0ft
Visibility 10.0mi
Time observed: 2021-10-25T15:55:00Z

KTHM Airport Details

Status Operational
Activation December 1944
Ownership Public
Usage Public
Chart GREAT FALLS
ATC on-site No
Beacon schedule sunset-sunrise
Beacon color clear green

KTHM Airport Contacts

Owner SANDERS COUNTY
Owner address PO BOX 519, THOMPSON FALLS, MT 59873-0519
Owner phone 406-827-6942
Manager TIM CONWAY
Manager address PO BOX 200507, HELENA, MT 59620-0507
Manager phone 406-444-2506

KTHM Airport (Thompson Falls) Radio Frequencies

KTHM (Airport) Radio Frequencies

UNICOM N/A
Common traffic advisory frequency (CTAF) 122.9